sensor_id;sensor_type;location;lat;lon;timestamp;temperature;humidity
18252;DHT22;26917;52.328;20.878;2023-04-15T00:01:13;10.40;99.90
18252;DHT22;26917;52.328;20.878;2023-04-15T00:03:45;10.40;99.90
18252;DHT22;26917;52.328;20.878;2023-04-15T00:06:14;10.40;99.90
18252;DHT22;26917;52.328;20.878;2023-04-15T00:08:43;10.40;99.90
18252;DHT22;26917;52.328;20.878;2023-04-15T00:11:11;10.40;99.90
18252;DHT22;26917;52.328;20.878;2023-04-15T00:13:41;10.40;99.90
18252;DHT22;26917;52.328;20.878;2023-04-15T00:16:10;10.40;99.90
18252;DHT22;26917;52.328;20.878;2023-04-15T00:18:38;10.40;99.80
18252;DHT22;26917;52.328;20.878;2023-04-15T00:21:07;10.40;99.80
18252;DHT22;26917;52.328;20.878;2023-04-15T00:23:35;10.40;99.90
18252;DHT22;26917;52.328;20.878;2023-04-15T00:26:03;10.30;99.90
18252;DHT22;26917;52.328;20.878;2023-04-15T00:28:32;10.30;99.90
18252;DHT22;26917;52.328;20.878;2023-04-15T00:31:03;10.20;99.90
18252;DHT22;26917;52.328;20.878;2023-04-15T00:33:32;10.10;99.90
18252;DHT22;26917;52.328;20.878;2023-04-15T00:36:05;10.20;99.90
18252;DHT22;26917;52.328;20.878;2023-04-15T00:38:35;10.10;99.90
18252;DHT22;26917;52.328;20.878;2023-04-15T00:41:04;10.20;99.90
18252;DHT22;26917;52.328;20.878;2023-04-15T00:43:32;10.20;99.90
18252;DHT22;26917;52.328;20.878;2023-04-15T00:46:03;10.10;99.90
18252;DHT22;26917;52.328;20.878;2023-04-15T00:48:32;10.10;99.90
18252;DHT22;26917;52.328;20.878;2023-04-15T00:51:00;10.00;99.90
18252;DHT22;26917;52.328;20.878;2023-04-15T00:53:28;9.80;99.90
18252;DHT22;26917;52.328;20.878;2023-04-15T00:55:57;9.80;99.90
18252;DHT22;26917;52.328;20.878;2023-04-15T00:58:25;9.70;99.90
18252;DHT22;26917;52.328;20.878;2023-04-15T01:00:55;9.70;99.90
18252;DHT22;26917;52.328;20.878;2023-04-15T01:03:25;9.70;99.90
18252;DHT22;26917;52.328;20.878;2023-04-15T01:05:54;9.70;99.90
18252;DHT22;26917;52.328;20.878;2023-04-15T01:08:26;10.10;99.90
18252;DHT22;26917;52.328;20.878;2023-04-15T01:10:55;9.70;99.90
18252;DHT22;26917;52.328;20.878;2023-04-15T01:13:24;9.70;99.90
18252;DHT22;26917;52.328;20.878;2023-04-15T01:15:53;9.60;99.90
18252;DHT22;26917;52.328;20.878;2023-04-15T01:18:25;9.60;99.90
18252;DHT22;26917;52.328;20.878;2023-04-15T01:20:54;9.50;99.90
18252;DHT22;26917;52.328;20.878;2023-04-15T01:23:23;9.40;99.90
18252;DHT22;26917;52.328;20.878;2023-04-15T01:25:54;9.40;99.90
18252;DHT22;26917;52.328;20.878;2023-04-15T01:28:23;9.40;99.90
18252;DHT22;26917;52.328;20.878;2023-04-15T01:31:05;9.40;99.90
18252;DHT22;26917;52.328;20.878;2023-04-15T01:33:36;9.40;99.90
18252;DHT22;26917;52.328;20.878;2023-04-15T01:36:07;9.40;99.90
18252;DHT22;26917;52.328;20.878;2023-04-15T01:38:36;9.50;99.90
18252;DHT22;26917;52.328;20.878;2023-04-15T01:41:06;9.50;99.90
18252;DHT22;26917;52.328;20.878;2023-04-15T01:43:35;9.50;99.90
18252;DHT22;26917;52.328;20.878;2023-04-15T01:46:04;9.50;99.90
18252;DHT22;26917;52.328;20.878;2023-04-15T01:48:33;9.40;99.90
18252;DHT22;26917;52.328;20.878;2023-04-15T01:51:03;9.40;99.90
18252;DHT22;26917;52.328;20.878;2023-04-15T01:53:32;9.40;99.90
18252;DHT22;26917;52.328;20.878;2023-04-15T01:56:01;9.30;99.90
18252;DHT22;26917;52.328;20.878;2023-04-15T01:58:32;9.20;99.90
18252;DHT22;26917;52.328;20.878;2023-04-15T02:01:05;9.20;99.90
18252;DHT22;26917;52.328;20.878;2023-04-15T02:03:36;9.10;99.90
18252;DHT22;26917;52.328;20.878;2023-04-15T02:06:05;9.10;99.90
18252;DHT22;26917;52.328;20.878;2023-04-15T02:08:34;9.10;99.90
18252;DHT22;26917;52.328;20.878;2023-04-15T02:11:06;9.00;99.90
18252;DHT22;26917;52.328;20.878;2023-04-15T02:13:36;9.00;99.90
18252;DHT22;26917;52.328;20.878;2023-04-15T02:16:14;9.00;99.90
18252;DHT22;26917;52.328;20.878;2023-04-15T02:18:43;9.00;99.90
18252;DHT22;26917;52.328;20.878;2023-04-15T02:21:13;9.00;99.90
18252;DHT22;26917;52.328;20.878;2023-04-15T02:23:41;9.00;99.90
18252;DHT22;26917;52.328;20.878;2023-04-15T02:26:12;8.90;99.90
18252;DHT22;26917;52.328;20.878;2023-04-15T02:28:42;10.00;99.90
18252;DHT22;26917;52.328;20.878;2023-04-15T02:31:13;8.90;99.90
18252;DHT22;26917;52.328;20.878;2023-04-15T02:33:42;8.90;99.90
18252;DHT22;26917;52.328;20.878;2023-04-15T02:36:11;8.90;99.90
18252;DHT22;26917;52.328;20.878;2023-04-15T02:38:39;8.90;99.90
18252;DHT22;26917;52.328;20.878;2023-04-15T02:41:09;8.90;99.90
18252;DHT22;26917;52.328;20.878;2023-04-15T02:43:37;8.90;99.90
18252;DHT22;26917;52.328;20.878;2023-04-15T02:46:08;8.90;99.90
18252;DHT22;26917;52.328;20.878;2023-04-15T02:48:40;8.90;99.90
18252;DHT22;26917;52.328;20.878;2023-04-15T02:51:16;8.90;99.90
18252;DHT22;26917;52.328;20.878;2023-04-15T02:53:46;8.90;99.90
18252;DHT22;26917;52.328;20.878;2023-04-15T02:56:15;8.90;99.90
18252;DHT22;26917;52.328;20.878;2023-04-15T02:58:45;8.90;99.90
18252;DHT22;26917;52.328;20.878;2023-04-15T03:01:17;8.90;99.90
18252;DHT22;26917;52.328;20.878;2023-04-15T03:03:46;8.90;99.90
18252;DHT22;26917;52.328;20.878;2023-04-15T03:06:15;8.90;99.90
18252;DHT22;26917;52.328;20.878;2023-04-15T03:08:43;8.90;99.90
18252;DHT22;26917;52.328;20.878;2023-04-15T03:11:13;8.90;99.90
18252;DHT22;26917;52.328;20.878;2023-04-15T03:13:42;8.90;99.90
18252;DHT22;26917;52.328;20.878;2023-04-15T03:16:23;8.90;99.90
18252;DHT22;26917;52.328;20.878;2023-04-15T03:18:52;8.90;99.90
18252;DHT22;26917;52.328;20.878;2023-04-15T03:21:22;8.80;99.90
18252;DHT22;26917;52.328;20.878;2023-04-15T03:23:50;8.80;99.90
18252;DHT22;26917;52.328;20.878;2023-04-15T03:26:26;8.80;99.90
18252;DHT22;26917;52.328;20.878;2023-04-15T03:28:58;8.80;99.90
18252;DHT22;26917;52.328;20.878;2023-04-15T03:31:29;8.80;99.90
18252;DHT22;26917;52.328;20.878;2023-04-15T03:33:57;8.80;99.90
18252;DHT22;26917;52.328;20.878;2023-04-15T03:36:27;8.80;99.90
18252;DHT22;26917;52.328;20.878;2023-04-15T03:38:56;8.80;99.90
18252;DHT22;26917;52.328;20.878;2023-04-15T03:41:25;8.80;99.90
18252;DHT22;26917;52.328;20.878;2023-04-15T03:43:54;8.80;99.90
18252;DHT22;26917;52.328;20.878;2023-04-15T03:46:22;8.80;99.90
18252;DHT22;26917;52.328;20.878;2023-04-15T03:48:52;8.80;99.90
18252;DHT22;26917;52.328;20.878;2023-04-15T03:51:20;8.80;99.90
18252;DHT22;26917;52.328;20.878;2023-04-15T03:53:49;8.80;99.90
18252;DHT22;26917;52.328;20.878;2023-04-15T03:56:17;9.30;99.90
18252;DHT22;26917;52.328;20.878;2023-04-15T03:58:46;8.80;99.90
18252;DHT22;26917;52.328;20.878;2023-04-15T04:01:14;8.80;99.90
18252;DHT22;26917;52.328;20.878;2023-04-15T04:03:42;8.80;99.90
18252;DHT22;26917;52.328;20.878;2023-04-15T04:06:12;8.80;99.90
18252;DHT22;26917;52.328;20.878;2023-04-15T04:08:41;8.70;99.90
18252;DHT22;26917;52.328;20.878;2023-04-15T04:11:09;8.70;99.90
18252;DHT22;26917;52.328;20.878;2023-04-15T04:13:38;8.70;99.90
18252;DHT22;26917;52.328;20.878;2023-04-15T04:16:06;8.60;99.90
18252;DHT22;26917;52.328;20.878;2023-04-15T04:18:35;8.70;99.90
18252;DHT22;26917;52.328;20.878;2023-04-15T04:21:03;8.60;99.90
18252;DHT22;26917;52.328;20.878;2023-04-15T04:23:33;8.70;99.90
18252;DHT22;26917;52.328;20.878;2023-04-15T04:26:01;8.70;99.90
18252;DHT22;26917;52.328;20.878;2023-04-15T04:28:30;8.70;99.90
18252;DHT22;26917;52.328;20.878;2023-04-15T04:30:58;8.70;99.90
18252;DHT22;26917;52.328;20.878;2023-04-15T04:33:27;8.70;99.90
18252;DHT22;26917;52.328;20.878;2023-04-15T04:35:55;8.70;99.90
18252;DHT22;26917;52.328;20.878;2023-04-15T04:38:23;8.70;99.90
18252;DHT22;26917;52.328;20.878;2023-04-15T04:40:53;8.70;99.90
18252;DHT22;26917;52.328;20.878;2023-04-15T04:43:21;8.70;99.90
18252;DHT22;26917;52.328;20.878;2023-04-15T04:45:50;8.70;99.90
18252;DHT22;26917;52.328;20.878;2023-04-15T04:48:18;8.70;99.90
18252;DHT22;26917;52.328;20.878;2023-04-15T04:50:46;8.70;99.90
18252;DHT22;26917;52.328;20.878;2023-04-15T04:53:15;8.80;99.90
18252;DHT22;26917;52.328;20.878;2023-04-15T04:55:44;8.70;99.90
18252;DHT22;26917;52.328;20.878;2023-04-15T04:58:14;8.80;99.90
18252;DHT22;26917;52.328;20.878;2023-04-15T05:00:42;8.80;99.90
18252;DHT22;26917;52.328;20.878;2023-04-15T05:03:10;8.70;99.90
18252;DHT22;26917;52.328;20.878;2023-04-15T05:05:39;8.70;99.90
18252;DHT22;26917;52.328;20.878;2023-04-15T05:08:07;8.70;99.90
18252;DHT22;26917;52.328;20.878;2023-04-15T05:10:35;8.70;99.90
18252;DHT22;26917;52.328;20.878;2023-04-15T05:13:04;8.80;99.90
18252;DHT22;26917;52.328;20.878;2023-04-15T05:15:33;8.70;99.90
18252;DHT22;26917;52.328;20.878;2023-04-15T05:18:03;8.70;99.90
18252;DHT22;26917;52.328;20.878;2023-04-15T05:20:31;8.70;99.90
18252;DHT22;26917;52.328;20.878;2023-04-15T05:23:00;8.70;99.90
18252;DHT22;26917;52.328;20.878;2023-04-15T05:25:28;8.80;99.90
18252;DHT22;26917;52.328;20.878;2023-04-15T05:27:56;8.70;99.90
18252;DHT22;26917;52.328;20.878;2023-04-15T05:30:25;8.70;99.90
18252;DHT22;26917;52.328;20.878;2023-04-15T05:32:54;8.80;99.90
18252;DHT22;26917;52.328;20.878;2023-04-15T05:35:23;8.80;99.90
18252;DHT22;26917;52.328;20.878;2023-04-15T05:37:51;8.70;99.90
18252;DHT22;26917;52.328;20.878;2023-04-15T05:40:19;8.70;99.90
18252;DHT22;26917;52.328;20.878;2023-04-15T05:42:48;8.70;99.90
18252;DHT22;26917;52.328;20.878;2023-04-15T05:45:16;8.70;99.90
18252;DHT22;26917;52.328;20.878;2023-04-15T05:47:44;8.80;99.90
18252;DHT22;26917;52.328;20.878;2023-04-15T05:50:15;8.80;99.90
18252;DHT22;26917;52.328;20.878;2023-04-15T05:52:43;8.80;99.90
18252;DHT22;26917;52.328;20.878;2023-04-15T05:55:12;8.80;99.90
18252;DHT22;26917;52.328;20.878;2023-04-15T05:57:41;8.80;99.90
18252;DHT22;26917;52.328;20.878;2023-04-15T06:00:10;8.80;99.90
18252;DHT22;26917;52.328;20.878;2023-04-15T06:02:39;8.80;99.90
18252;DHT22;26917;52.328;20.878;2023-04-15T06:05:08;8.80;99.90
18252;DHT22;26917;52.328;20.878;2023-04-15T06:07:39;8.80;99.90
18252;DHT22;26917;52.328;20.878;2023-04-15T06:10:08;8.80;99.90
18252;DHT22;26917;52.328;20.878;2023-04-15T06:12:36;8.80;99.90
18252;DHT22;26917;52.328;20.878;2023-04-15T06:15:06;8.80;99.90
18252;DHT22;26917;52.328;20.878;2023-04-15T06:17:35;8.80;99.90
18252;DHT22;26917;52.328;20.878;2023-04-15T06:20:04;8.80;99.90
18252;DHT22;26917;52.328;20.878;2023-04-15T06:22:36;8.80;99.90
18252;DHT22;26917;52.328;20.878;2023-04-15T06:25:15;8.80;99.90
18252;DHT22;26917;52.328;20.878;2023-04-15T06:27:43;8.80;99.90
18252;DHT22;26917;52.328;20.878;2023-04-15T06:30:12;8.80;99.90
18252;DHT22;26917;52.328;20.878;2023-04-15T06:32:40;8.80;99.90
18252;DHT22;26917;52.328;20.878;2023-04-15T06:35:09;8.80;99.90
18252;DHT22;26917;52.328;20.878;2023-04-15T06:37:37;8.90;99.90
18252;DHT22;26917;52.328;20.878;2023-04-15T06:40:07;8.90;99.90
18252;DHT22;26917;52.328;20.878;2023-04-15T06:42:37;8.90;99.90
18252;DHT22;26917;52.328;20.878;2023-04-15T06:45:06;8.90;99.90
18252;DHT22;26917;52.328;20.878;2023-04-15T06:47:35;8.90;99.90
18252;DHT22;26917;52.328;20.878;2023-04-15T06:50:04;8.90;99.90
18252;DHT22;26917;52.328;20.878;2023-04-15T06:52:33;8.80;99.90
18252;DHT22;26917;52.328;20.878;2023-04-15T06:55:01;8.80;99.90
18252;DHT22;26917;52.328;20.878;2023-04-15T06:57:30;8.80;99.90
18252;DHT22;26917;52.328;20.878;2023-04-15T07:00:02;8.80;99.90
18252;DHT22;26917;52.328;20.878;2023-04-15T07:02:31;8.80;99.90
18252;DHT22;26917;52.328;20.878;2023-04-15T07:05:00;8.80;99.90
18252;DHT22;26917;52.328;20.878;2023-04-15T07:07:28;8.80;99.90
18252;DHT22;26917;52.328;20.878;2023-04-15T07:09:57;8.80;99.90
18252;DHT22;26917;52.328;20.878;2023-04-15T07:12:25;8.80;99.90
18252;DHT22;26917;52.328;20.878;2023-04-15T07:14:54;8.80;99.90
18252;DHT22;26917;52.328;20.878;2023-04-15T07:17:26;8.80;99.90
18252;DHT22;26917;52.328;20.878;2023-04-15T07:20:24;8.80;99.90
18252;DHT22;26917;52.328;20.878;2023-04-15T07:22:53;8.90;99.90
18252;DHT22;26917;52.328;20.878;2023-04-15T07:25:21;8.80;99.90
18252;DHT22;26917;52.328;20.878;2023-04-15T07:27:51;8.90;99.90
18252;DHT22;26917;52.328;20.878;2023-04-15T07:30:19;8.90;99.90
18252;DHT22;26917;52.328;20.878;2023-04-15T07:32:49;8.90;99.90
18252;DHT22;26917;52.328;20.878;2023-04-15T07:35:18;8.90;99.90
18252;DHT22;26917;52.328;20.878;2023-04-15T07:37:50;8.90;99.90
18252;DHT22;26917;52.328;20.878;2023-04-15T07:40:34;8.90;99.90
18252;DHT22;26917;52.328;20.878;2023-04-15T07:43:11;8.60;99.90
18252;DHT22;26917;52.328;20.878;2023-04-15T07:46:06;9.00;99.90
18252;DHT22;26917;52.328;20.878;2023-04-15T07:48:53;9.10;99.90
18252;DHT22;26917;52.328;20.878;2023-04-15T07:51:31;9.00;99.90
18252;DHT22;26917;52.328;20.878;2023-04-15T07:54:00;9.00;99.90
18252;DHT22;26917;52.328;20.878;2023-04-15T07:56:29;9.00;99.90
18252;DHT22;26917;52.328;20.878;2023-04-15T07:58:57;9.00;99.90
18252;DHT22;26917;52.328;20.878;2023-04-15T08:01:28;9.00;99.90
18252;DHT22;26917;52.328;20.878;2023-04-15T08:03:59;8.90;99.90
18252;DHT22;26917;52.328;20.878;2023-04-15T08:06:28;8.90;99.90
18252;DHT22;26917;52.328;20.878;2023-04-15T08:08:59;8.90;99.90
18252;DHT22;26917;52.328;20.878;2023-04-15T08:11:28;8.90;99.90
18252;DHT22;26917;52.328;20.878;2023-04-15T08:13:58;8.90;99.90
18252;DHT22;26917;52.328;20.878;2023-04-15T08:16:31;8.90;99.90
18252;DHT22;26917;52.328;20.878;2023-04-15T08:19:15;9.00;99.90
18252;DHT22;26917;52.328;20.878;2023-04-15T08:21:43;8.90;99.90
18252;DHT22;26917;52.328;20.878;2023-04-15T08:24:12;9.00;99.90
18252;DHT22;26917;52.328;20.878;2023-04-15T08:26:40;9.00;99.90
18252;DHT22;26917;52.328;20.878;2023-04-15T08:29:09;9.00;99.90
18252;DHT22;26917;52.328;20.878;2023-04-15T08:31:38;9.00;99.90
18252;DHT22;26917;52.328;20.878;2023-04-15T08:34:06;9.00;99.90
18252;DHT22;26917;52.328;20.878;2023-04-15T08:36:36;9.00;99.90
18252;DHT22;26917;52.328;20.878;2023-04-15T08:39:05;9.10;99.90
18252;DHT22;26917;52.328;20.878;2023-04-15T08:41:38;9.10;99.90
18252;DHT22;26917;52.328;20.878;2023-04-15T08:44:08;9.10;99.90
18252;DHT22;26917;52.328;20.878;2023-04-15T08:46:36;9.10;99.90
18252;DHT22;26917;52.328;20.878;2023-04-15T08:49:09;9.10;99.90
18252;DHT22;26917;52.328;20.878;2023-04-15T08:51:39;9.10;99.90
18252;DHT22;26917;52.328;20.878;2023-04-15T08:54:08;9.20;99.90
18252;DHT22;26917;52.328;20.878;2023-04-15T08:56:38;9.20;99.90
18252;DHT22;26917;52.328;20.878;2023-04-15T08:59:06;9.30;99.90
18252;DHT22;26917;52.328;20.878;2023-04-15T09:01:37;9.30;99.90
18252;DHT22;26917;52.328;20.878;2023-04-15T09:04:06;9.30;99.90
18252;DHT22;26917;52.328;20.878;2023-04-15T09:06:34;9.30;99.90
18252;DHT22;26917;52.328;20.878;2023-04-15T09:09:04;9.30;99.90
18252;DHT22;26917;52.328;20.878;2023-04-15T09:11:33;9.40;99.90
18252;DHT22;26917;52.328;20.878;2023-04-15T09:14:02;9.50;99.90
18252;DHT22;26917;52.328;20.878;2023-04-15T09:16:55;9.50;99.90
18252;DHT22;26917;52.328;20.878;2023-04-15T09:19:24;9.50;99.90
18252;DHT22;26917;52.328;20.878;2023-04-15T09:21:53;9.60;99.90
18252;DHT22;26917;52.328;20.878;2023-04-15T09:24:34;9.60;99.90
18252;DHT22;26917;52.328;20.878;2023-04-15T09:27:04;9.60;99.90
18252;DHT22;26917;52.328;20.878;2023-04-15T09:29:33;9.60;99.90
18252;DHT22;26917;52.328;20.878;2023-04-15T09:32:11;9.60;99.90
18252;DHT22;26917;52.328;20.878;2023-04-15T09:34:40;9.60;99.90
18252;DHT22;26917;52.328;20.878;2023-04-15T09:37:08;9.60;99.90
18252;DHT22;26917;52.328;20.878;2023-04-15T09:39:58;9.60;99.90
18252;DHT22;26917;52.328;20.878;2023-04-15T09:42:26;9.60;99.90
18252;DHT22;26917;52.328;20.878;2023-04-15T09:44:55;9.60;99.90
18252;DHT22;26917;52.328;20.878;2023-04-15T09:47:27;9.60;99.90
18252;DHT22;26917;52.328;20.878;2023-04-15T09:49:56;9.60;99.90
18252;DHT22;26917;52.328;20.878;2023-04-15T09:52:25;9.60;99.90
18252;DHT22;26917;52.328;20.878;2023-04-15T09:54:58;9.60;99.90
18252;DHT22;26917;52.328;20.878;2023-04-15T09:57:33;9.60;99.90
18252;DHT22;26917;52.328;20.878;2023-04-15T10:00:02;9.60;99.90
18252;DHT22;26917;52.328;20.878;2023-04-15T10:02:32;9.60;99.90
18252;DHT22;26917;52.328;20.878;2023-04-15T10:05:01;9.70;99.90
18252;DHT22;26917;52.328;20.878;2023-04-15T10:07:30;9.60;99.90
18252;DHT22;26917;52.328;20.878;2023-04-15T10:10:01;9.60;99.90
18252;DHT22;26917;52.328;20.878;2023-04-15T10:12:31;9.60;99.90
18252;DHT22;26917;52.328;20.878;2023-04-15T10:15:03;9.70;99.90
18252;DHT22;26917;52.328;20.878;2023-04-15T10:17:32;9.70;99.90
18252;DHT22;26917;52.328;20.878;2023-04-15T10:20:03;9.80;99.90
18252;DHT22;26917;52.328;20.878;2023-04-15T10:22:32;9.80;99.90
18252;DHT22;26917;52.328;20.878;2023-04-15T10:25:02;9.80;99.90
18252;DHT22;26917;52.328;20.878;2023-04-15T10:27:30;9.90;99.90
18252;DHT22;26917;52.328;20.878;2023-04-15T10:30:00;9.90;99.90
18252;DHT22;26917;52.328;20.878;2023-04-15T10:32:29;9.90;99.90
18252;DHT22;26917;52.328;20.878;2023-04-15T10:34:58;9.90;99.90
18252;DHT22;26917;52.328;20.878;2023-04-15T10:37:33;9.90;99.90
18252;DHT22;26917;52.328;20.878;2023-04-15T10:40:26;9.90;99.90
18252;DHT22;26917;52.328;20.878;2023-04-15T10:42:55;9.90;99.90
18252;DHT22;26917;52.328;20.878;2023-04-15T10:45:25;9.90;99.90
18252;DHT22;26917;52.328;20.878;2023-04-15T10:47:55;10.00;99.90
18252;DHT22;26917;52.328;20.878;2023-04-15T10:50:29;10.00;99.90
18252;DHT22;26917;52.328;20.878;2023-04-15T10:53:00;10.10;99.90
18252;DHT22;26917;52.328;20.878;2023-04-15T10:55:32;10.10;99.90
18252;DHT22;26917;52.328;20.878;2023-04-15T10:58:01;10.20;99.90
18252;DHT22;26917;52.328;20.878;2023-04-15T11:00:30;10.10;99.90
18252;DHT22;26917;52.328;20.878;2023-04-15T11:03:05;10.00;99.90
18252;DHT22;26917;52.328;20.878;2023-04-15T11:05:50;9.90;99.90
18252;DHT22;26917;52.328;20.878;2023-04-15T11:08:20;9.90;99.90
18252;DHT22;26917;52.328;20.878;2023-04-15T11:11:09;9.90;99.90
18252;DHT22;26917;52.328;20.878;2023-04-15T11:13:47;9.90;99.90
18252;DHT22;26917;52.328;20.878;2023-04-15T11:16:16;10.00;99.90
18252;DHT22;26917;52.328;20.878;2023-04-15T11:18:53;10.00;99.90
18252;DHT22;26917;52.328;20.878;2023-04-15T11:21:24;10.00;99.90
18252;DHT22;26917;52.328;20.878;2023-04-15T11:23:54;10.10;99.90
18252;DHT22;26917;52.328;20.878;2023-04-15T11:26:26;10.10;99.90
18252;DHT22;26917;52.328;20.878;2023-04-15T11:28:54;10.10;99.90
18252;DHT22;26917;52.328;20.878;2023-04-15T11:31:26;10.10;99.90
18252;DHT22;26917;52.328;20.878;2023-04-15T11:33:56;10.10;99.90
18252;DHT22;26917;52.328;20.878;2023-04-15T11:36:26;10.20;99.90
18252;DHT22;26917;52.328;20.878;2023-04-15T11:38:57;10.30;99.90
18252;DHT22;26917;52.328;20.878;2023-04-15T11:41:27;10.40;99.90
18252;DHT22;26917;52.328;20.878;2023-04-15T11:43:55;10.40;99.90
18252;DHT22;26917;52.328;20.878;2023-04-15T11:46:29;10.40;99.90
18252;DHT22;26917;52.328;20.878;2023-04-15T11:48:58;10.40;99.90
18252;DHT22;26917;52.328;20.878;2023-04-15T11:51:31;10.30;99.90
18252;DHT22;26917;52.328;20.878;2023-04-15T11:53:59;10.30;99.90
18252;DHT22;26917;52.328;20.878;2023-04-15T11:56:30;10.30;99.90
18252;DHT22;26917;52.328;20.878;2023-04-15T11:58:58;10.40;99.90
18252;DHT22;26917;52.328;20.878;2023-04-15T12:01:30;10.40;99.90
18252;DHT22;26917;52.328;20.878;2023-04-15T12:03:59;10.30;99.90
18252;DHT22;26917;52.328;20.878;2023-04-15T12:06:31;10.30;99.90
18252;DHT22;26917;52.328;20.878;2023-04-15T12:09:07;10.20;99.90
18252;DHT22;26917;52.328;20.878;2023-04-15T12:11:39;10.20;99.90
18252;DHT22;26917;52.328;20.878;2023-04-15T12:14:26;10.10;99.90
18252;DHT22;26917;52.328;20.878;2023-04-15T12:16:58;10.10;99.90
18252;DHT22;26917;52.328;20.878;2023-04-15T12:19:28;10.00;99.90
18252;DHT22;26917;52.328;20.878;2023-04-15T12:21:59;9.90;99.90
18252;DHT22;26917;52.328;20.878;2023-04-15T12:24:30;9.90;99.90
18252;DHT22;26917;52.328;20.878;2023-04-15T12:27:02;9.90;99.90
18252;DHT22;26917;52.328;20.878;2023-04-15T12:29:33;10.00;99.90
18252;DHT22;26917;52.328;20.878;2023-04-15T12:32:06;10.10;99.90
18252;DHT22;26917;52.328;20.878;2023-04-15T12:34:36;10.20;99.90
18252;DHT22;26917;52.328;20.878;2023-04-15T12:37:06;10.40;99.90
18252;DHT22;26917;52.328;20.878;2023-04-15T12:39:36;10.60;99.90
18252;DHT22;26917;52.328;20.878;2023-04-15T12:42:07;10.80;99.90
18252;DHT22;26917;52.328;20.878;2023-04-15T12:44:36;10.70;99.90
18252;DHT22;26917;52.328;20.878;2023-04-15T12:47:06;10.70;99.90
18252;DHT22;26917;52.328;20.878;2023-04-15T12:49:34;10.60;99.90
18252;DHT22;26917;52.328;20.878;2023-04-15T12:52:04;10.50;99.90
18252;DHT22;26917;52.328;20.878;2023-04-15T12:54:32;10.50;99.90
18252;DHT22;26917;52.328;20.878;2023-04-15T12:57:02;10.50;99.90
18252;DHT22;26917;52.328;20.878;2023-04-15T12:59:34;10.60;99.90
18252;DHT22;26917;52.328;20.878;2023-04-15T13:02:03;10.60;99.90
18252;DHT22;26917;52.328;20.878;2023-04-15T13:04:31;10.60;99.90
18252;DHT22;26917;52.328;20.878;2023-04-15T13:07:00;10.70;99.90
18252;DHT22;26917;52.328;20.878;2023-04-15T13:09:29;10.70;99.90
18252;DHT22;26917;52.328;20.878;2023-04-15T13:11:59;10.70;99.90
18252;DHT22;26917;52.328;20.878;2023-04-15T13:14:27;10.70;99.90
18252;DHT22;26917;52.328;20.878;2023-04-15T13:16:58;10.70;99.90
18252;DHT22;26917;52.328;20.878;2023-04-15T13:19:26;10.70;99.90
18252;DHT22;26917;52.328;20.878;2023-04-15T13:21:54;10.80;99.90
18252;DHT22;26917;52.328;20.878;2023-04-15T13:24:23;10.70;99.90
18252;DHT22;26917;52.328;20.878;2023-04-15T13:26:51;10.70;99.90
18252;DHT22;26917;52.328;20.878;2023-04-15T13:29:20;10.60;99.90
18252;DHT22;26917;52.328;20.878;2023-04-15T13:31:48;10.50;99.90
18252;DHT22;26917;52.328;20.878;2023-04-15T13:34:17;10.50;99.90
18252;DHT22;26917;52.328;20.878;2023-04-15T13:36:46;10.60;99.90
18252;DHT22;26917;52.328;20.878;2023-04-15T13:39:14;10.70;99.90
18252;DHT22;26917;52.328;20.878;2023-04-15T13:41:42;10.90;99.90
18252;DHT22;26917;52.328;20.878;2023-04-15T13:44:11;11.00;99.90
18252;DHT22;26917;52.328;20.878;2023-04-15T13:46:40;11.00;99.90
18252;DHT22;26917;52.328;20.878;2023-04-15T13:49:17;11.10;99.90
18252;DHT22;26917;52.328;20.878;2023-04-15T13:51:45;11.20;99.90
18252;DHT22;26917;52.328;20.878;2023-04-15T13:54:16;11.20;99.90
18252;DHT22;26917;52.328;20.878;2023-04-15T13:57:28;11.30;99.90
18252;DHT22;26917;52.328;20.878;2023-04-15T14:00:09;11.40;99.90
18252;DHT22;26917;52.328;20.878;2023-04-15T14:02:43;11.30;99.90
18252;DHT22;26917;52.328;20.878;2023-04-15T14:05:32;11.10;99.90
18252;DHT22;26917;52.328;20.878;2023-04-15T14:08:03;10.90;99.90
18252;DHT22;26917;52.328;20.878;2023-04-15T14:10:31;10.70;99.90
18252;DHT22;26917;52.328;20.878;2023-04-15T14:13:00;10.60;99.90
18252;DHT22;26917;52.328;20.878;2023-04-15T14:15:28;10.50;99.90
18252;DHT22;26917;52.328;20.878;2023-04-15T14:18:01;10.60;99.90
18252;DHT22;26917;52.328;20.878;2023-04-15T14:20:31;10.60;99.90
18252;DHT22;26917;52.328;20.878;2023-04-15T14:22:59;10.60;99.90
18252;DHT22;26917;52.328;20.878;2023-04-15T14:25:28;10.70;99.90
18252;DHT22;26917;52.328;20.878;2023-04-15T14:28:00;10.70;99.90
18252;DHT22;26917;52.328;20.878;2023-04-15T14:30:28;10.80;99.90
18252;DHT22;26917;52.328;20.878;2023-04-15T14:32:56;10.80;99.90
18252;DHT22;26917;52.328;20.878;2023-04-15T14:35:25;10.80;99.90
18252;DHT22;26917;52.328;20.878;2023-04-15T14:37:55;10.80;99.90
18252;DHT22;26917;52.328;20.878;2023-04-15T14:40:23;10.70;99.90
18252;DHT22;26917;52.328;20.878;2023-04-15T14:42:52;10.70;99.90
18252;DHT22;26917;52.328;20.878;2023-04-15T14:45:20;10.70;99.90
18252;DHT22;26917;52.328;20.878;2023-04-15T14:47:48;10.70;99.90
18252;DHT22;26917;52.328;20.878;2023-04-15T14:50:17;10.70;99.90
18252;DHT22;26917;52.328;20.878;2023-04-15T14:52:45;10.70;99.90
18252;DHT22;26917;52.328;20.878;2023-04-15T14:55:15;10.70;99.90
18252;DHT22;26917;52.328;20.878;2023-04-15T14:57:43;10.70;99.90
18252;DHT22;26917;52.328;20.878;2023-04-15T15:00:12;10.70;99.90
18252;DHT22;26917;52.328;20.878;2023-04-15T15:02:42;10.70;99.90
18252;DHT22;26917;52.328;20.878;2023-04-15T15:05:10;10.60;99.90
18252;DHT22;26917;52.328;20.878;2023-04-15T15:07:39;10.50;99.90
18252;DHT22;26917;52.328;20.878;2023-04-15T15:10:08;10.60;99.90
18252;DHT22;26917;52.328;20.878;2023-04-15T15:12:37;10.70;99.90
18252;DHT22;26917;52.328;20.878;2023-04-15T15:15:07;10.70;99.90
18252;DHT22;26917;52.328;20.878;2023-04-15T15:17:54;10.80;99.90
18252;DHT22;26917;52.328;20.878;2023-04-15T15:20:23;10.80;99.90
18252;DHT22;26917;52.328;20.878;2023-04-15T15:22:51;10.90;99.90
18252;DHT22;26917;52.328;20.878;2023-04-15T15:25:20;11.00;99.90
18252;DHT22;26917;52.328;20.878;2023-04-15T15:27:50;11.00;99.90
18252;DHT22;26917;52.328;20.878;2023-04-15T15:30:18;11.00;99.90
18252;DHT22;26917;52.328;20.878;2023-04-15T15:32:47;11.00;99.90
18252;DHT22;26917;52.328;20.878;2023-04-15T15:35:15;10.90;99.90
18252;DHT22;26917;52.328;20.878;2023-04-15T15:37:45;10.90;99.90
18252;DHT22;26917;52.328;20.878;2023-04-15T15:40:13;10.80;99.90
18252;DHT22;26917;52.328;20.878;2023-04-15T15:42:42;10.70;99.90
18252;DHT22;26917;52.328;20.878;2023-04-15T15:45:11;10.70;99.90